sensor_id;sensor_type;location;lat;lon;timestamp;temperature;humidity
58983;DHT22;44771;49.982;8.560;2023-06-01T00:02:08;11.80;99.90
58983;DHT22;44771;49.982;8.560;2023-06-01T00:07:12;11.90;99.90
58983;DHT22;44771;49.982;8.560;2023-06-01T00:12:13;11.80;99.90
58983;DHT22;44771;49.982;8.560;2023-06-01T00:17:15;11.60;99.90
58983;DHT22;44771;49.982;8.560;2023-06-01T00:22:18;11.90;99.90
58983;DHT22;44771;49.982;8.560;2023-06-01T00:27:20;11.80;99.90
58983;DHT22;44771;49.982;8.560;2023-06-01T00:32:22;11.40;99.90
58983;DHT22;44771;49.982;8.560;2023-06-01T00:37:25;11.30;99.90
58983;DHT22;44771;49.982;8.560;2023-06-01T00:42:27;11.20;99.90
58983;DHT22;44771;49.982;8.560;2023-06-01T00:47:29;11.20;99.90
58983;DHT22;44771;49.982;8.560;2023-06-01T00:52:33;11.10;99.90
58983;DHT22;44771;49.982;8.560;2023-06-01T00:57:35;11.20;99.90
58983;DHT22;44771;49.982;8.560;2023-06-01T01:02:37;11.10;99.90
58983;DHT22;44771;49.982;8.560;2023-06-01T01:07:51;10.90;99.90
58983;DHT22;44771;49.982;8.560;2023-06-01T01:12:58;10.80;99.90
58983;DHT22;44771;49.982;8.560;2023-06-01T01:18:04;10.80;99.90
58983;DHT22;44771;49.982;8.560;2023-06-01T01:23:19;11.10;99.90
58983;DHT22;44771;49.982;8.560;2023-06-01T01:28:32;11.40;99.90
58983;DHT22;44771;49.982;8.560;2023-06-01T01:33:35;11.60;99.90
58983;DHT22;44771;49.982;8.560;2023-06-01T01:38:38;11.70;99.90
58983;DHT22;44771;49.982;8.560;2023-06-01T01:43:41;11.70;99.90
58983;DHT22;44771;49.982;8.560;2023-06-01T01:48:50;11.80;99.90
58983;DHT22;44771;49.982;8.560;2023-06-01T01:53:55;11.70;99.90
58983;DHT22;44771;49.982;8.560;2023-06-01T01:58:59;11.80;99.90
58983;DHT22;44771;49.982;8.560;2023-06-01T02:04:03;11.90;99.90
58983;DHT22;44771;49.982;8.560;2023-06-01T02:09:05;11.90;99.90
58983;DHT22;44771;49.982;8.560;2023-06-01T02:14:08;11.90;99.90
58983;DHT22;44771;49.982;8.560;2023-06-01T02:19:10;11.90;99.90
58983;DHT22;44771;49.982;8.560;2023-06-01T02:24:13;11.90;99.90
58983;DHT22;44771;49.982;8.560;2023-06-01T02:29:17;11.90;99.90
58983;DHT22;44771;49.982;8.560;2023-06-01T02:34:19;11.50;99.90
58983;DHT22;44771;49.982;8.560;2023-06-01T02:39:21;11.40;99.90
58983;DHT22;44771;49.982;8.560;2023-06-01T02:44:24;11.40;99.90
58983;DHT22;44771;49.982;8.560;2023-06-01T02:49:25;11.60;99.90
58983;DHT22;44771;49.982;8.560;2023-06-01T02:54:27;11.60;99.90
58983;DHT22;44771;49.982;8.560;2023-06-01T02:59:30;11.70;99.90
58983;DHT22;44771;49.982;8.560;2023-06-01T03:04:32;11.50;99.90
58983;DHT22;44771;49.982;8.560;2023-06-01T03:09:34;11.10;99.90
58983;DHT22;44771;49.982;8.560;2023-06-01T03:14:40;10.70;99.90
58983;DHT22;44771;49.982;8.560;2023-06-01T03:19:42;10.50;99.90
58983;DHT22;44771;49.982;8.560;2023-06-01T03:24:44;10.40;99.90
58983;DHT22;44771;49.982;8.560;2023-06-01T03:29:47;10.30;99.90
58983;DHT22;44771;49.982;8.560;2023-06-01T03:34:49;10.30;99.90
58983;DHT22;44771;49.982;8.560;2023-06-01T03:39:50;10.40;99.90
58983;DHT22;44771;49.982;8.560;2023-06-01T03:44:53;10.40;99.90
58983;DHT22;44771;49.982;8.560;2023-06-01T03:49:55;10.40;99.90
58983;DHT22;44771;49.982;8.560;2023-06-01T03:54:58;10.00;99.90
58983;DHT22;44771;49.982;8.560;2023-06-01T04:00:02;9.90;99.90
58983;DHT22;44771;49.982;8.560;2023-06-01T04:05:04;9.90;99.90
58983;DHT22;44771;49.982;8.560;2023-06-01T04:10:06;10.50;99.90
58983;DHT22;44771;49.982;8.560;2023-06-01T04:15:11;11.00;99.90
58983;DHT22;44771;49.982;8.560;2023-06-01T04:20:14;11.20;99.90
58983;DHT22;44771;49.982;8.560;2023-06-01T04:25:16;11.50;99.90
58983;DHT22;44771;49.982;8.560;2023-06-01T04:30:20;11.90;99.90
58983;DHT22;44771;49.982;8.560;2023-06-01T04:35:22;12.20;99.90
58983;DHT22;44771;49.982;8.560;2023-06-01T04:40:23;12.50;99.90
58983;DHT22;44771;49.982;8.560;2023-06-01T04:45:27;12.80;99.90
58983;DHT22;44771;49.982;8.560;2023-06-01T04:50:29;13.00;99.90
58983;DHT22;44771;49.982;8.560;2023-06-01T04:55:31;13.30;99.90
58983;DHT22;44771;49.982;8.560;2023-06-01T05:00:37;13.50;99.90
58983;DHT22;44771;49.982;8.560;2023-06-01T05:05:39;13.80;99.90
58983;DHT22;44771;49.982;8.560;2023-06-01T05:10:42;14.00;99.90
58983;DHT22;44771;49.982;8.560;2023-06-01T05:15:45;14.30;99.90
58983;DHT22;44771;49.982;8.560;2023-06-01T05:20:47;14.80;99.90
58983;DHT22;44771;49.982;8.560;2023-06-01T05:25:49;15.10;99.90
58983;DHT22;44771;49.982;8.560;2023-06-01T05:30:54;15.20;99.90
58983;DHT22;44771;49.982;8.560;2023-06-01T05:35:57;15.40;99.90
58983;DHT22;44771;49.982;8.560;2023-06-01T05:40:59;15.70;99.90
58983;DHT22;44771;49.982;8.560;2023-06-01T05:46:02;16.00;99.90
58983;DHT22;44771;49.982;8.560;2023-06-01T05:51:04;16.20;99.90
58983;DHT22;44771;49.982;8.560;2023-06-01T05:56:06;16.30;99.90
58983;DHT22;44771;49.982;8.560;2023-06-01T06:01:10;16.50;99.90
58983;DHT22;44771;49.982;8.560;2023-06-01T06:06:12;16.70;99.90
58983;DHT22;44771;49.982;8.560;2023-06-01T06:11:16;16.90;99.90
58983;DHT22;44771;49.982;8.560;2023-06-01T06:16:19;17.20;99.90
58983;DHT22;44771;49.982;8.560;2023-06-01T06:21:21;17.40;99.90
58983;DHT22;44771;49.982;8.560;2023-06-01T06:26:23;17.50;99.10
58983;DHT22;44771;49.982;8.560;2023-06-01T06:31:26;17.60;99.90
58983;DHT22;44771;49.982;8.560;2023-06-01T06:36:28;17.90;98.20
58983;DHT22;44771;49.982;8.560;2023-06-01T06:41:30;18.00;97.40
58983;DHT22;44771;49.982;8.560;2023-06-01T06:46:34;18.40;96.80
58983;DHT22;44771;49.982;8.560;2023-06-01T06:51:37;18.70;96.20
58983;DHT22;44771;49.982;8.560;2023-06-01T06:56:39;18.90;94.00
58983;DHT22;44771;49.982;8.560;2023-06-01T07:01:42;19.10;93.60
58983;DHT22;44771;49.982;8.560;2023-06-01T07:06:44;19.20;94.40
58983;DHT22;44771;49.982;8.560;2023-06-01T07:11:46;19.50;93.30
58983;DHT22;44771;49.982;8.560;2023-06-01T07:16:49;19.80;92.30
58983;DHT22;44771;49.982;8.560;2023-06-01T07:21:51;20.10;90.80
58983;DHT22;44771;49.982;8.560;2023-06-01T07:26:53;20.10;90.20
58983;DHT22;44771;49.982;8.560;2023-06-01T07:31:56;20.40;90.80
58983;DHT22;44771;49.982;8.560;2023-06-01T07:36:58;20.70;87.50
58983;DHT22;44771;49.982;8.560;2023-06-01T07:42:18;21.00;85.30
58983;DHT22;44771;49.982;8.560;2023-06-01T07:47:21;21.20;85.30
58983;DHT22;44771;49.982;8.560;2023-06-01T07:52:23;21.60;83.50
58983;DHT22;44771;49.982;8.560;2023-06-01T07:57:25;21.70;81.50
58983;DHT22;44771;49.982;8.560;2023-06-01T08:02:28;21.90;82.20
58983;DHT22;44771;49.982;8.560;2023-06-01T08:07:29;22.10;79.70
58983;DHT22;44771;49.982;8.560;2023-06-01T08:12:31;22.40;79.00
58983;DHT22;44771;49.982;8.560;2023-06-01T08:17:34;22.50;76.00
58983;DHT22;44771;49.982;8.560;2023-06-01T08:22:36;22.80;74.40
58983;DHT22;44771;49.982;8.560;2023-06-01T08:27:38;22.90;73.20
58983;DHT22;44771;49.982;8.560;2023-06-01T08:32:41;23.10;72.60
58983;DHT22;44771;49.982;8.560;2023-06-01T08:37:43;23.60;73.50
58983;DHT22;44771;49.982;8.560;2023-06-01T08:42:52;23.80;70.60
58983;DHT22;44771;49.982;8.560;2023-06-01T08:47:59;23.80;68.30
58983;DHT22;44771;49.982;8.560;2023-06-01T08:53:06;23.90;69.90
58983;DHT22;44771;49.982;8.560;2023-06-01T08:58:14;24.20;69.30
58983;DHT22;44771;49.982;8.560;2023-06-01T09:03:17;24.30;66.10
58983;DHT22;44771;49.982;8.560;2023-06-01T09:08:22;24.60;66.00
58983;DHT22;44771;49.982;8.560;2023-06-01T09:13:33;24.80;66.90
58983;DHT22;44771;49.982;8.560;2023-06-01T09:24:17;25.10;61.40
58983;DHT22;44771;49.982;8.560;2023-06-01T09:29:26;25.10;61.70
58983;DHT22;44771;49.982;8.560;2023-06-01T09:40:23;25.60;61.00
58983;DHT22;44771;49.982;8.560;2023-06-01T09:45:34;25.60;58.00
58983;DHT22;44771;49.982;8.560;2023-06-01T09:50:38;25.90;60.80
58983;DHT22;44771;49.982;8.560;2023-06-01T09:56:06;25.80;58.60
58983;DHT22;44771;49.982;8.560;2023-06-01T10:01:16;26.10;56.10
58983;DHT22;44771;49.982;8.560;2023-06-01T10:06:30;26.20;55.20
58983;DHT22;44771;49.982;8.560;2023-06-01T10:11:41;26.40;55.00
58983;DHT22;44771;49.982;8.560;2023-06-01T10:16:52;26.20;52.80
58983;DHT22;44771;49.982;8.560;2023-06-01T10:22:02;26.40;51.00
58983;DHT22;44771;49.982;8.560;2023-06-01T10:27:15;26.50;51.80
58983;DHT22;44771;49.982;8.560;2023-06-01T10:32:43;26.70;52.10
58983;DHT22;44771;49.982;8.560;2023-06-01T10:48:58;27.40;53.00
58983;DHT22;44771;49.982;8.560;2023-06-01T10:59:41;27.30;49.10
58983;DHT22;44771;49.982;8.560;2023-06-01T11:04:48;27.70;50.90
58983;DHT22;44771;49.982;8.560;2023-06-01T11:09:53;27.60;51.70
58983;DHT22;44771;49.982;8.560;2023-06-01T11:15:16;27.60;46.70
58983;DHT22;44771;49.982;8.560;2023-06-01T11:20:24;27.60;47.10
58983;DHT22;44771;49.982;8.560;2023-06-01T11:25:27;27.70;47.50
58983;DHT22;44771;49.982;8.560;2023-06-01T11:30:29;27.80;46.50
58983;DHT22;44771;49.982;8.560;2023-06-01T11:35:32;27.80;45.60
58983;DHT22;44771;49.982;8.560;2023-06-01T11:40:34;28.00;48.10
58983;DHT22;44771;49.982;8.560;2023-06-01T11:45:41;27.90;44.40
58983;DHT22;44771;49.982;8.560;2023-06-01T11:50:47;28.00;47.30
58983;DHT22;44771;49.982;8.560;2023-06-01T11:55:49;27.90;46.00
58983;DHT22;44771;49.982;8.560;2023-06-01T12:00:51;28.10;44.70
58983;DHT22;44771;49.982;8.560;2023-06-01T12:05:57;28.10;44.40
58983;DHT22;44771;49.982;8.560;2023-06-01T12:11:00;27.90;43.80
58983;DHT22;44771;49.982;8.560;2023-06-01T12:16:02;27.90;44.80
58983;DHT22;44771;49.982;8.560;2023-06-01T12:21:23;28.10;45.50
58983;DHT22;44771;49.982;8.560;2023-06-01T12:26:34;27.90;43.00
58983;DHT22;44771;49.982;8.560;2023-06-01T12:31:56;27.30;42.50
58983;DHT22;44771;49.982;8.560;2023-06-01T12:37:14;27.80;44.80
58983;DHT22;44771;49.982;8.560;2023-06-01T12:42:53;28.20;42.80
58983;DHT22;44771;49.982;8.560;2023-06-01T12:53:50;28.50;42.50
58983;DHT22;44771;49.982;8.560;2023-06-01T13:10:15;29.10;45.80
58983;DHT22;44771;49.982;8.560;2023-06-01T13:15:17;29.10;46.40
58983;DHT22;44771;49.982;8.560;2023-06-01T13:26:03;28.80;46.90
58983;DHT22;44771;49.982;8.560;2023-06-01T13:36:52;28.60;47.00
58983;DHT22;44771;49.982;8.560;2023-06-01T13:42:28;28.80;48.00
58983;DHT22;44771;49.982;8.560;2023-06-01T13:55:17;29.00;45.70
58983;DHT22;44771;49.982;8.560;2023-06-01T13:58:56;28.90;46.90
58983;DHT22;44771;49.982;8.560;2023-06-01T14:09:36;28.70;47.10
58983;DHT22;44771;49.982;8.560;2023-06-01T14:15:05;28.80;47.50
58983;DHT22;44771;49.982;8.560;2023-06-01T14:20:36;29.10;46.30
58983;DHT22;44771;49.982;8.560;2023-06-01T14:25:58;29.20;48.50
58983;DHT22;44771;49.982;8.560;2023-06-01T14:31:30;29.20;48.30
58983;DHT22;44771;49.982;8.560;2023-06-01T14:36:35;29.20;45.70
58983;DHT22;44771;49.982;8.560;2023-06-01T14:43:15;29.10;47.40
58983;DHT22;44771;49.982;8.560;2023-06-01T14:47:23;28.90;46.70
58983;DHT22;44771;49.982;8.560;2023-06-01T14:52:25;28.90;50.10
58983;DHT22;44771;49.982;8.560;2023-06-01T14:57:30;28.70;47.00
58983;DHT22;44771;49.982;8.560;2023-06-01T15:02:33;28.80;46.30
58983;DHT22;44771;49.982;8.560;2023-06-01T15:07:35;28.90;48.50
58983;DHT22;44771;49.982;8.560;2023-06-01T15:12:45;28.90;48.10
58983;DHT22;44771;49.982;8.560;2023-06-01T15:17:48;28.70;47.80
58983;DHT22;44771;49.982;8.560;2023-06-01T15:22:50;29.00;47.80
58983;DHT22;44771;49.982;8.560;2023-06-01T15:27:52;29.10;51.40
58983;DHT22;44771;49.982;8.560;2023-06-01T15:33:09;29.00;50.90
58983;DHT22;44771;49.982;8.560;2023-06-01T15:38:21;28.00;52.80
58983;DHT22;44771;49.982;8.560;2023-06-01T15:43:23;27.90;52.50
58983;DHT22;44771;49.982;8.560;2023-06-01T15:48:29;28.10;52.80
58983;DHT22;44771;49.982;8.560;2023-06-01T15:53:31;28.20;53.40
58983;DHT22;44771;49.982;8.560;2023-06-01T15:58:34;28.10;53.60
58983;DHT22;44771;49.982;8.560;2023-06-01T16:03:44;27.80;54.30
58983;DHT22;44771;49.982;8.560;2023-06-01T16:08:51;27.70;53.90
58983;DHT22;44771;49.982;8.560;2023-06-01T16:13:56;27.30;54.70
58983;DHT22;44771;49.982;8.560;2023-06-01T16:19:03;27.20;54.50
58983;DHT22;44771;49.982;8.560;2023-06-01T16:24:05;26.80;54.10
58983;DHT22;44771;49.982;8.560;2023-06-01T16:29:07;26.70;55.40
58983;DHT22;44771;49.982;8.560;2023-06-01T16:34:19;26.00;55.90
58983;DHT22;44771;49.982;8.560;2023-06-01T16:39:24;25.20;56.20
58983;DHT22;44771;49.982;8.560;2023-06-01T16:44:29;24.70;55.80
58983;DHT22;44771;49.982;8.560;2023-06-01T16:49:35;24.50;52.90
58983;DHT22;44771;49.982;8.560;2023-06-01T16:54:42;24.60;53.30
58983;DHT22;44771;49.982;8.560;2023-06-01T16:59:44;24.70;53.30
58983;DHT22;44771;49.982;8.560;2023-06-01T17:04:48;24.80;51.40
58983;DHT22;44771;49.982;8.560;2023-06-01T17:09:53;24.80;52.60
58983;DHT22;44771;49.982;8.560;2023-06-01T17:15:15;24.90;54.70
58983;DHT22;44771;49.982;8.560;2023-06-01T17:20:39;25.00;54.80
58983;DHT22;44771;49.982;8.560;2023-06-01T17:25:40;24.80;54.00
58983;DHT22;44771;49.982;8.560;2023-06-01T17:30:44;24.60;54.00
58983;DHT22;44771;49.982;8.560;2023-06-01T17:35:48;24.30;54.30
58983;DHT22;44771;49.982;8.560;2023-06-01T17:40:56;24.10;55.70
58983;DHT22;44771;49.982;8.560;2023-06-01T17:46:00;23.90;56.00
58983;DHT22;44771;49.982;8.560;2023-06-01T17:51:10;23.70;57.30
58983;DHT22;44771;49.982;8.560;2023-06-01T17:56:14;23.50;57.60
58983;DHT22;44771;49.982;8.560;2023-06-01T18:01:16;23.30;57.00
58983;DHT22;44771;49.982;8.560;2023-06-01T18:06:26;23.00;58.30
58983;DHT22;44771;49.982;8.560;2023-06-01T18:11:51;22.80;57.80
58983;DHT22;44771;49.982;8.560;2023-06-01T18:16:56;22.70;57.90
58983;DHT22;44771;49.982;8.560;2023-06-01T18:22:05;22.50;58.10
58983;DHT22;44771;49.982;8.560;2023-06-01T18:27:07;22.40;58.30
58983;DHT22;44771;49.982;8.560;2023-06-01T18:32:09;22.20;59.70
58983;DHT22;44771;49.982;8.560;2023-06-01T18:37:16;22.00;60.90
58983;DHT22;44771;49.982;8.560;2023-06-01T18:42:18;21.80;60.10
58983;DHT22;44771;49.982;8.560;2023-06-01T18:47:20;21.60;60.10
58983;DHT22;44771;49.982;8.560;2023-06-01T18:52:24;21.40;60.70
58983;DHT22;44771;49.982;8.560;2023-06-01T18:57:25;21.00;63.80
58983;DHT22;44771;49.982;8.560;2023-06-01T19:02:27;20.60;66.30
58983;DHT22;44771;49.982;8.560;2023-06-01T19:07:47;20.30;66.20
58983;DHT22;44771;49.982;8.560;2023-06-01T19:12:50;19.80;69.50
58983;DHT22;44771;49.982;8.560;2023-06-01T19:17:55;19.60;70.70
58983;DHT22;44771;49.982;8.560;2023-06-01T19:22:58;19.30;71.90
58983;DHT22;44771;49.982;8.560;2023-06-01T19:28:00;18.90;73.60
58983;DHT22;44771;49.982;8.560;2023-06-01T19:33:02;18.70;73.90
58983;DHT22;44771;49.982;8.560;2023-06-01T19:38:10;18.70;71.60
58983;DHT22;44771;49.982;8.560;2023-06-01T19:43:33;18.60;73.50
58983;DHT22;44771;49.982;8.560;2023-06-01T19:48:36;18.40;74.20
58983;DHT22;44771;49.982;8.560;2023-06-01T19:53:45;18.30;75.60
58983;DHT22;44771;49.982;8.560;2023-06-01T19:58:48;18.10;75.10
58983;DHT22;44771;49.982;8.560;2023-06-01T20:03:51;18.00;73.40
58983;DHT22;44771;49.982;8.560;2023-06-01T20:09:07;18.30;72.30
58983;DHT22;44771;49.982;8.560;2023-06-01T20:14:12;18.30;72.80
58983;DHT22;44771;49.982;8.560;2023-06-01T20:19:15;18.20;73.70
58983;DHT22;44771;49.982;8.560;2023-06-01T20:24:25;18.40;72.30
58983;DHT22;44771;49.982;8.560;2023-06-01T20:29:33;18.30;72.40
58983;DHT22;44771;49.982;8.560;2023-06-01T20:34:35;18.30;73.10
58983;DHT22;44771;49.982;8.560;2023-06-01T20:39:42;18.30;73.90
58983;DHT22;44771;49.982;8.560;2023-06-01T20:44:48;18.00;75.10
58983;DHT22;44771;49.982;8.560;2023-06-01T20:50:03;17.60;77.30
58983;DHT22;44771;49.982;8.560;2023-06-01T20:55:25;17.20;79.30
58983;DHT22;44771;49.982;8.560;2023-06-01T21:00:28;17.10;80.40
58983;DHT22;44771;49.982;8.560;2023-06-01T21:05:31;16.80;81.40
58983;DHT22;44771;49.982;8.560;2023-06-01T21:10:38;16.60;83.10
58983;DHT22;44771;49.982;8.560;2023-06-01T21:15:43;16.50;83.40
58983;DHT22;44771;49.982;8.560;2023-06-01T21:20:47;16.30;84.00
58983;DHT22;44771;49.982;8.560;2023-06-01T21:25:51;16.40;83.50
58983;DHT22;44771;49.982;8.560;2023-06-01T21:30:53;16.30;84.50
58983;DHT22;44771;49.982;8.560;2023-06-01T21:35:54;16.10;86.00
58983;DHT22;44771;49.982;8.560;2023-06-01T21:40:58;15.90;86.90
58983;DHT22;44771;49.982;8.560;2023-06-01T21:46:00;15.70;88.80
58983;DHT22;44771;49.982;8.560;2023-06-01T21:51:02;15.50;90.10
58983;DHT22;44771;49.982;8.560;2023-06-01T21:56:06;15.40;91.00
58983;DHT22;44771;49.982;8.560;2023-06-01T22:01:09;15.20;91.40
58983;DHT22;44771;49.982;8.560;2023-06-01T22:06:10;15.10;92.30
58983;DHT22;44771;49.982;8.560;2023-06-01T22:11:14;15.00;92.80
58983;DHT22;44771;49.982;8.560;2023-06-01T22:16:18;14.80;93.80
58983;DHT22;44771;49.982;8.560;2023-06-01T22:21:20;14.60;95.20
58983;DHT22;44771;49.982;8.560;2023-06-01T22:26:24;14.50;96.00
58983;DHT22;44771;49.982;8.560;2023-06-01T22:31:26;14.40;97.30
58983;DHT22;44771;49.982;8.560;2023-06-01T22:36:27;14.20;99.70
58983;DHT22;44771;49.982;8.560;2023-06-01T22:41:31;13.90;99.90
58983;DHT22;44771;49.982;8.560;2023-06-01T22:46:33;13.90;99.90
58983;DHT22;44771;49.982;8.560;2023-06-01T22:51:35;13.80;99.90
58983;DHT22;44771;49.982;8.560;2023-06-01T22:56:38;13.70;99.90
58983;DHT22;44771;49.982;8.560;2023-06-01T23:01:40;13.50;99.90
58983;DHT22;44771;49.982;8.560;2023-06-01T23:06:42;13.30;99.90
58983;DHT22;44771;49.982;8.560;2023-06-01T23:11:45;13.40;99.90
58983;DHT22;44771;49.982;8.560;2023-06-01T23:16:47;13.20;99.90
58983;DHT22;44771;49.982;8.560;2023-06-01T23:21:49;13.10;99.90
58983;DHT22;44771;49.982;8.560;2023-06-01T23:26:52;13.10;99.90
58983;DHT22;44771;49.982;8.560;2023-06-01T23:31:54;13.00;99.90
58983;DHT22;44771;49.982;8.560;2023-06-01T23:36:57;12.90;99.90
58983;DHT22;44771;49.982;8.560;2023-06-01T23:42:00;12.80;99.90
58983;DHT22;44771;49.982;8.560;2023-06-01T23:47:02;12.70;99.90
58983;DHT22;44771;49.982;8.560;2023-06-01T23:52:04;12.70;99.90
58983;DHT22;44771;49.982;8.560;2023-06-01T23:57:08;12.60;99.90
